M I D A S
Marine Information and Data Acquisition System
Tripno 744 of the Zeeleeuw from 2004-07-05 06:15:59 to 2004-07-05 13:01:16
Back to CruiseResearch ActivitiesStationsMapUnderway DataData graphs

EquipmentUnitsComment
TimeDGPSUTC
LatitudeDGPSDM.mWGS84
LongitudeDGPSDM.mWGS84
TemperatureSBE03/SBE38deg celciusITS90
ConductivitySBE21S/mITS90
SalinitySBE21 Practical Salinity Units
ChlorophylAChelsea fluorimeterg/lCalibrated in Aceton
Missing or incorrect values are displayed as -999
Sea surface data collected by the RV Zeeleeuw from 2004-07-05 06:15:59 to 2004-07-05 13:01:16
Time Latitude Longitude Temperature Conductivity Salinity ChlorophylA
2004-07-05 06:17:03 51°13.632 2°55.984 19.005598 0.062337 0.350392 -0.612702
2004-07-05 06:18:03 51°13.66 2°55.872 19.011261 0.062337 0.350403 -0.612702
2004-07-05 06:19:03 51°13.669 2°55.779 18.9955 0.062337 0.349754 -0.578993
2004-07-05 06:20:03 51°13.674 2°55.786 18.985853 0.062337 0.349894 -0.612702
2004-07-05 06:21:03 51°13.669 2°55.771 19.086119 0.062337 0.349924 -0.612702
2004-07-05 06:22:01 51°13.74 2°55.706 18.997225 0.062337 0.349941 -0.612702
2004-07-05 06:23:03 51°13.845 2°55.619 18.993735 0.062337 0.349924 -0.612702
2004-07-05 06:24:03 51°13.966 2°55.542 19.005885 0.062337 0.349912 -0.646411
2004-07-05 06:25:03 51°14.092 2°55.463 19.016063 0.062337 0.349912 -0.578993
2004-07-05 06:26:03 51°14.227 2°55.33 19.021931 0.062337 0.349906 -0.578993
2004-07-05 06:27:08 51°14.35 2°55.079 18.994433 0.062337 0.349842 -0.578993
2004-07-05 06:28:12 51°14.465 2°54.781 19.0511 0.062337 0.349906 -0.612702
2004-07-05 06:29:12 51°14.49 2°54.49 19.063239 0.062337 0.349836 -0.578993
2004-07-05 06:30:12 51°14.462 2°54.335 19.058113 0.062337 0.349976 -0.578993
2004-07-05 06:31:11 51°14.441 2°54.232 19.066356 0.062337 0.350128 -0.612702
2004-07-05 06:32:12 51°14.423 2°54.149 19.085217 0.062337 0.350146 -0.612702
2004-07-05 06:33:16 51°14.383 2°53.997 19.092022 0.062337 0.350193 -0.612702
2004-07-05 06:34:15 51°14.274 2°53.727 19.044988 0.062337 0.350064 -0.612702
2004-07-05 06:35:21 51°14.132 2°53.377 19.075705 0.062441 0.350713 -0.612702
2004-07-05 06:36:21 51°13.999 2°53.061 19.090669 0.062545 0.351333 -0.612702
2004-07-05 06:37:21 51°13.87 2°52.741 19.117227 0.062545 0.351374 -0.612702
2004-07-05 06:38:21 51°13.736 2°52.426 16.935557 3.244549 23.214479 4.645965
2004-07-05 06:39:25 51°13.603 2°52.08 16.741353 4.379678 33.985861 1.949212
2004-07-05 06:40:25 51°13.482 2°51.753 16.712764 4.394445 34.216604 1.275024
2004-07-05 06:41:23 51°13.365 2°51.436 16.70831 4.38759 34.178804 1.106477
2004-07-05 06:42:28 51°13.233 2°51.081 16.705552 4.396766 34.270747 1.005349
2004-07-05 06:43:29 51°13.109 2°50.748 16.697575 4.397716 34.28406 0.803093
2004-07-05 06:44:29 51°12.987 2°50.419 16.695877 4.398032 34.289338 0.634546
2004-07-05 06:45:28 51°12.867 2°50.094 16.698169 4.399298 34.30416 0.499708
2004-07-05 06:46:29 51°12.744 2°49.758 16.703091 4.400142 34.311523 0.432289
2004-07-05 06:47:29 51°12.623 2°49.429 16.700418 4.400669 34.314236 0.364871
2004-07-05 06:48:29 51°12.503 2°49.098 16.70657 4.401302 34.318498 0.364871
2004-07-05 06:49:29 51°12.383 2°48.768 16.710304 4.39993 34.303385 0.331161
2004-07-05 06:50:28 51°12.264 2°48.443 16.717685 4.402356 34.319513 0.263742
2004-07-05 06:51:29 51°12.141 2°48.108 16.723836 4.402462 34.316655 0.263742
2004-07-05 06:52:29 51°12.026 2°47.773 16.727654 4.402989 34.317477 0.230033
2004-07-05 06:53:29 51°11.921 2°47.43 16.72706 4.401618 34.303 0.263742
2004-07-05 06:54:29 51°11.815 2°47.088 16.730072 4.403305 34.315831 0.230033
2004-07-05 06:55:29 51°11.709 2°46.745 16.728757 4.402251 34.30789 0.230033
2004-07-05 06:56:29 51°11.604 2°46.401 16.729647 4.402251 34.307261 0.263742
2004-07-05 06:57:28 51°11.501 2°46.063 16.727654 4.402251 34.308519 0.297452
2004-07-05 06:58:29 51°11.393 2°45.714 16.722818 4.403516 34.322707 0.263742
2004-07-05 06:59:27 51°11.296 2°45.378 16.717134 4.403622 34.324887 0.297452
2004-07-05 07:00:29 51°11.196 2°45.017 16.712595 4.402884 34.324744 0.297452
2004-07-05 07:01:29 51°11.1 2°44.665 16.710982 4.402356 34.321403 0.331161
2004-07-05 07:02:28 51°11.006 2°44.32 16.703388 4.401407 34.318159 0.39858
2004-07-05 07:03:29 51°10.91 2°43.962 16.695792 4.396239 34.278728 0.432289
2004-07-05 07:04:28 51°10.815 2°43.617 16.699442 4.399298 34.309829 0.567127
2004-07-05 07:05:29 51°10.72 2°43.259 16.718788 4.398876 34.29733 0.870512
2004-07-05 07:06:28 51°10.628 2°42.913 16.745042 4.399086 34.266466 1.039059
2004-07-05 07:07:29 51°10.534 2°42.555 16.773236 4.401406 34.268473 1.173896
2004-07-05 07:08:28 51°10.444 2°42.207 16.788282 4.405941 34.287262 1.207606
2004-07-05 07:09:28 51°10.35 2°41.855 16.789722 4.406785 34.285822 1.241315
2004-07-05 07:10:27 51°10.258 2°41.51 16.783747 4.406679 34.286787 1.443571
2004-07-05 07:11:29 51°10.164 2°41.144 16.784171 4.406785 34.291472 1.578409
2004-07-05 07:12:37 51°10.058 2°40.745 16.789553 4.40689 34.288624 1.679537
2004-07-05 07:13:35 51°9.971 2°40.402 16.794765 4.407101 34.286695 1.746956
2004-07-05 07:14:37 51°9.886 2°40.032 16.796291 4.407839 34.288102 1.982922
2004-07-05 07:15:36 51°9.814 2°39.672 16.784044 4.407523 34.288485 2.016631
2004-07-05 07:16:35 51°9.741 2°39.313 16.767428 4.40668 34.294321 1.949212
2004-07-05 07:17:36 51°9.665 2°38.94 16.751106 4.405836 34.297649 1.949212
2004-07-05 07:18:36 51°9.584 2°38.598 16.728884 4.402988 34.288542 1.915503
2004-07-05 07:19:36 51°9.481 2°38.588 16.755473 4.403622 34.307892 1.982922
2004-07-05 07:20:36 51°9.483 2°38.759 16.748392 4.404571 34.30296 1.848084
2004-07-05 07:21:36 51°9.53 2°39.015 16.732023 4.404676 34.307652 1.746956
2004-07-05 07:22:37 51°9.576 2°39.302 16.728884 4.403516 34.307601 2.016631
2004-07-05 07:23:43 51°9.652 2°39.6 16.746823 4.403516 34.302569 2.050341
2004-07-05 07:24:44 51°9.673 2°39.873 16.744618 4.404465 34.299526 2.151469
2004-07-05 07:25:44 51°9.721 2°40.117 16.755049 4.403938 34.296187 2.185178
2004-07-05 07:26:44 51°9.716 2°40.272 16.772854 4.404676 34.288797 2.151469
2004-07-05 07:27:43 51°9.683 2°40.341 16.78523 4.406047 34.287553 2.185178
2004-07-05 07:28:44 51°9.651 2°40.381 16.790697 4.406152 34.281567 2.252597
2004-07-05 07:29:44 51°9.624 2°40.406 16.792392 4.406468 34.280557 2.353725
2004-07-05 07:30:44 51°9.599 2°40.425 16.796036 4.406996 34.280756 2.421144
2004-07-05 07:31:44 51°9.58 2°40.442 16.79807 4.402882 34.244949 2.589691
2004-07-05 07:32:44 51°9.569 2°40.469 16.804383 4.407839 34.282456 2.522272
2004-07-05 07:33:44 51°9.608 2°40.521 16.811077 4.40689 34.26855 2.488563
2004-07-05 07:34:44 51°9.727 2°40.439 16.8201 4.403515 34.239805 2.522272
2004-07-05 07:35:43 51°9.798 2°40.154 16.833357 4.408999 34.274369 2.320016
2004-07-05 07:36:44 51°9.75 2°39.788 16.821286 4.408155 34.260137 2.016631
2004-07-05 07:37:44 51°9.692 2°39.418 16.794638 4.404886 34.249231 2.151469
2004-07-05 07:38:52 51°9.628 2°38.992 16.792604 4.408683 34.294821 2.252597
2004-07-05 07:39:52 51°9.57 2°38.616 16.782094 4.407312 34.284139 2.353725
2004-07-05 07:40:52 51°9.51 2°38.24 16.753395 4.407312 34.300461 2.252597
2004-07-05 07:41:52 51°9.451 2°37.863 16.741522 4.40552 34.306833 2.252597
2004-07-05 07:42:52 51°9.391 2°37.484 16.746357 4.405098 34.309443 2.421144
2004-07-05 07:43:49 51°9.334 2°37.124 16.757762 4.405731 34.307414 2.724529
2004-07-05 07:44:57 51°9.266 2°36.692 16.770396 4.40668 34.304372 2.791947
2004-07-05 07:45:57 51°9.205 2°36.312 16.778831 4.407734 34.305392 3.19646
2004-07-05 07:46:56 51°9.18 2°35.927 16.773744 4.408367 34.303367 3.027913
2004-07-05 07:47:57 51°9.186 2°35.526 16.75984 4.40784 34.309453 2.893076
2004-07-05 07:48:55 51°9.237 2°35.161 16.745933 4.406574 34.306595 2.724529
2004-07-05 07:49:56 51°9.304 2°34.782 16.733507 4.406047 34.31646 2.859366
2004-07-05 07:50:56 51°9.41 2°34.446 16.690573 4.405204 34.317282 2.555982
2004-07-05 07:51:56 51°9.605 2°34.338 16.711873 4.401407 34.323829 2.724529
2004-07-05 07:52:57 51°9.789 2°34.491 16.631897 4.402989 34.325034 2.252597
2004-07-05 07:53:56 51°9.963 2°34.66 16.560672 4.396557 34.345184 2.185178
2004-07-05 07:54:57 51°10.146 2°34.841 16.506014 4.391811 34.3625 2.387435
2004-07-05 07:55:57 51°10.325 2°35.02 16.474602 4.389175 34.377444 2.387435
2004-07-05 07:56:57 51°10.497 2°35.2 16.479966 4.388543 34.387133 2.353725
2004-07-05 07:57:56 51°10.671 2°35.367 16.419278 4.388965 34.397822 2.117759
2004-07-05 07:58:57 51°10.846 2°35.557 16.409776 4.386856 34.427666 2.286306
2004-07-05 07:59:56 51°11.016 2°35.733 16.415486 4.383481 34.394206 2.08405
2004-07-05 08:00:57 51°11.195 2°35.913 16.429248 4.383059 34.38732 2.421144
2004-07-05 08:01:57 51°11.358 2°36.117 16.438023 4.384325 34.388889 2.353725
2004-07-05 08:02:55 51°11.513 2°36.321 16.462894 4.383797 34.367735 2.555982
2004-07-05 08:03:56 51°11.673 2°36.542 16.493885 4.384218 34.353023 2.690819
2004-07-05 08:04:57 51°11.83 2°36.768 16.504056 4.386011 34.345907 2.522272
2004-07-05 08:05:56 51°11.984 2°36.985 16.505758 4.386433 34.344533 2.960494
2004-07-05 08:06:57 51°12.144 2°37.208 16.494864 4.386433 34.345167 2.791947
2004-07-05 08:07:57 51°12.302 2°37.428 16.476731 4.385906 34.350689 2.454853
2004-07-05 08:08:56 51°12.457 2°37.647 16.443347 4.385273 34.361637 2.454853
2004-07-05 08:09:55 51°12.611 2°37.867 16.40168 4.383164 34.379342 2.320016
2004-07-05 08:10:55 51°12.767 2°38.089 16.392303 4.381161 34.385284 2.421144
2004-07-05 08:11:57 51°12.932 2°38.316 16.415912 4.380317 34.377874 2.08405
2004-07-05 08:12:56 51°13.114 2°38.473 16.445391 4.380211 34.356599 2.320016
2004-07-05 08:13:57 51°13.304 2°38.631 16.462851 4.383797 34.365194 2.353725
2004-07-05 08:14:57 51°13.492 2°38.784 16.470728 4.384957 34.363306 2.286306
2004-07-05 08:15:57 51°13.688 2°38.897 16.472772 4.384218 34.352388 2.387435
2004-07-05 08:16:56 51°13.9 2°38.927 16.477072 4.385168 34.35627 2.353725
2004-07-05 08:17:56 51°14.109 2°38.835 16.483244 4.385695 34.357086 2.454853
2004-07-05 08:18:57 51°14.233 2°38.524 16.486224 4.386961 34.367547 2.387435
2004-07-05 08:19:56 51°14.217 2°38.146 16.503375 4.389597 34.381777 2.050341
2004-07-05 08:20:56 51°14.163 2°37.761 16.521076 4.393605 34.401035 2.016631
2004-07-05 08:21:57 51°14.108 2°37.364 16.54026 4.39603 34.409596 2.387435
2004-07-05 08:22:57 51°14.056 2°36.971 16.547873 4.39835 34.412788 2.151469
2004-07-05 08:23:57 51°14.006 2°36.576 16.548256 4.399511 34.423583 2.151469
2004-07-05 08:24:55 51°13.958 2°36.195 16.526351 4.400355 34.434781 1.949212
2004-07-05 08:25:57 51°13.914 2°35.785 16.486224 4.399089 34.444016 2.050341
2004-07-05 08:26:57 51°13.922 2°35.388 16.456975 4.396875 34.45512 2.252597
2004-07-05 08:27:55 51°14.058 2°35.123 16.42699 4.395293 34.465433 2.117759
2004-07-05 08:28:57 51°14.278 2°35.145 16.342628 4.393184 34.485168 2.050341
2004-07-05 08:29:57 51°14.489 2°35.209 16.257394 4.385908 34.506192 2.117759
2004-07-05 08:30:56 51°14.693 2°35.28 16.229629 4.38053 34.507516 2.185178
2004-07-05 08:31:57 51°14.904 2°35.358 16.219117 4.378948 34.514103 2.185178
2004-07-05 08:32:57 51°15.11 2°35.435 16.21322 4.377999 34.512151 2.454853
2004-07-05 08:33:57 51°15.316 2°35.514 16.207835 4.377683 34.511929 2.117759
2004-07-05 08:34:57 51°15.521 2°35.593 16.204245 4.377788 34.517998 2.117759
2004-07-05 08:35:56 51°15.711 2°35.665 16.214331 4.378105 34.524004 2.016631
2004-07-05 08:36:56 51°15.795 2°35.627 16.231081 4.379054 34.522741 2.050341
2004-07-05 08:37:56 51°15.795 2°35.57 16.246887 4.380847 34.520574 1.814375
2004-07-05 08:38:56 51°15.775 2°35.54 16.235909 4.382007 34.524385 2.252597
2004-07-05 08:39:56 51°15.746 2°35.502 16.224672 4.380425 34.522633 2.522272
2004-07-05 08:40:57 51°15.709 2°35.466 16.211212 4.379054 34.522741 2.690819
2004-07-05 08:41:57 51°15.669 2°35.44 16.220271 4.379054 34.522741 3.162751
2004-07-05 08:42:57 51°15.631 2°35.417 16.2248 4.379581 34.521612 3.263879
2004-07-05 08:43:56 51°15.594 2°35.395 16.228518 4.379687 34.517405 2.859366
2004-07-05 08:44:57 51°15.557 2°35.369 16.229928 4.371776 34.448285 2.893076
2004-07-05 08:45:57 51°15.52 2°35.343 16.232448 4.373358 34.462236 2.758238
2004-07-05 08:46:57 51°15.485 2°35.315 16.239625 4.372937 34.452748 2.825657
2004-07-05 08:47:57 51°15.451 2°35.285 16.240736 4.374097 34.455287 2.690819
2004-07-05 08:48:57 51°15.418 2°35.253 16.23138 4.372831 34.451818 2.690819
2004-07-05 08:49:56 51°15.387 2°35.221 16.217408 4.372937 34.457234 2.758238
2004-07-05 08:50:57 51°15.355 2°35.186 16.206339 4.371882 34.460754 2.859366
2004-07-05 08:51:59 51°15.324 2°35.149 16.208476 4.370933 34.457512 2.960494
2004-07-05 08:52:59 51°15.292 2°35.109 16.211297 4.371249 34.458379 2.926785
2004-07-05 08:53:59 51°15.211 2°35.084 16.212066 4.370722 34.453086 2.926785
2004-07-05 08:54:59 51°15.168 2°35.193 16.228945 4.371038 34.452671 2.859366
2004-07-05 08:55:59 51°15.262 2°35.304 16.244837 4.373464 34.461884 2.589691
2004-07-05 08:56:59 51°15.448 2°35.406 16.240138 4.374729 34.460225 2.286306
2004-07-05 08:57:59 51°15.639 2°35.51 16.248083 4.371987 34.437333 2.320016
2004-07-05 08:58:59 51°15.833 2°35.592 16.250005 4.37494 34.458881 2.185178
2004-07-05 08:59:59 51°16.026 2°35.672 16.245862 4.382112 34.522106 2.185178
2004-07-05 09:00:59 51°16.218 2°35.75 16.241719 4.382639 34.526114 2.185178
2004-07-05 09:01:59 51°16.412 2°35.816 16.236421 4.382323 34.531028 2.353725
2004-07-05 09:02:59 51°16.607 2°35.875 16.220271 4.381269 34.53136 2.421144
2004-07-05 09:03:59 51°16.801 2°35.936 16.22198 4.378949 34.524381 2.421144
2004-07-05 09:04:59 51°16.872 2°36.143 16.247656 4.380741 34.519644 2.387435
2004-07-05 09:05:59 51°16.795 2°36.246 16.214417 4.379897 34.507711 2.320016
2004-07-05 09:06:59 51°16.743 2°36.217 16.22997 4.382218 34.542946 2.421144
2004-07-05 09:07:59 51°16.701 2°36.177 16.224587 4.382218 34.541661 2.421144
2004-07-05 09:09:04 51°16.658 2°36.132 16.225527 4.381585 34.537363 2.522272
2004-07-05 09:10:04 51°16.62 2°36.089 16.223604 4.38148 34.536433 2.926785
2004-07-05 09:11:03 51°16.585 2°36.048 16.2154 4.381374 34.538715 3.23017
2004-07-05 09:12:04 51°16.549 2°36.007 16.206168 4.381058 34.541065 3.263879
2004-07-05 09:13:04 51°16.514 2°35.967 16.195055 4.380425 34.543839 3.466136
2004-07-05 09:14:07 51°16.478 2°35.924 16.187959 4.378211 34.536507 3.466136
2004-07-05 09:15:09 51°16.443 2°35.882 16.180947 4.378527 34.54316 3.432426
2004-07-05 09:16:09 51°16.409 2°35.841 16.185864 4.377578 34.537996 3.365007
2004-07-05 09:17:07 51°16.375 2°35.802 16.194157 4.377789 34.535355 3.600973
2004-07-05 09:18:08 51°16.34 2°35.761 16.190438 4.378738 34.541806 3.398717
2004-07-05 09:19:14 51°16.302 2°35.716 16.195739 4.378421 34.535797 3.365007
2004-07-05 09:20:13 51°16.267 2°35.675 16.204758 4.378949 34.534664 3.567264
2004-07-05 09:21:14 51°16.232 2°35.634 16.203433 4.381058 34.548781 3.499845
2004-07-05 09:22:14 51°16.197 2°35.59 16.203647 4.379476 34.536104 3.600973
2004-07-05 09:23:13 51°16.162 2°35.547 16.198005 4.379582 34.538321 3.567264
2004-07-05 09:24:13 51°16.128 2°35.504 16.203946 4.378738 34.532803 3.600973
2004-07-05 09:25:13 51°16.093 2°35.46 16.195782 4.379371 34.537745 3.702101
2004-07-05 09:26:13 51°16.058 2°35.415 16.192319 4.378316 34.536152 3.80323
2004-07-05 09:27:14 51°15.992 2°35.366 16.199672 4.377261 34.524913 3.76952
2004-07-05 09:28:13 51°15.941 2°35.406 16.205356 4.373886 34.489985 3.702101
2004-07-05 09:29:14 51°15.989 2°35.48 16.21181 4.379476 34.530319 3.263879
2004-07-05 09:30:13 51°16.138 2°35.633 16.21228 4.380425 34.526486 2.859366
2004-07-05 09:31:12 51°16.316 2°35.742 16.22339 4.379476 34.531604 2.522272
2004-07-05 09:32:13 51°16.499 2°35.855 16.204758 4.380741 34.53506 2.758238
2004-07-05 09:33:15 51°16.686 2°35.973 16.200997 4.38032 34.540979 2.589691
2004-07-05 09:34:15 51°16.865 2°36.087 16.217451 4.381058 34.54428 2.522272
2004-07-05 09:35:15 51°17.043 2°36.204 16.191336 4.383062 34.552318 2.454853
2004-07-05 09:36:15 51°17.222 2°36.322 16.161833 4.379476 34.552829 2.320016
2004-07-05 09:37:15 51°17.404 2°36.433 16.141301 4.376629 34.551498 2.488563
2004-07-05 09:38:15 51°17.586 2°36.541 16.13467 4.374625 34.549251 2.6234
2004-07-05 09:39:15 51°17.769 2°36.653 16.127354 4.37452 34.545742 2.421144
2004-07-05 09:40:15 51°17.951 2°36.762 16.130135 4.373676 34.546661 2.555982
2004-07-05 09:41:15 51°18.134 2°36.873 16.142157 4.374098 34.542658 2.791947
2004-07-05 09:42:15 51°18.317 2°36.98 16.151097 4.374731 34.537945 2.690819
2004-07-05 09:43:15 51°18.512 2°36.948 16.16102 4.374625 34.537013 2.893076
2004-07-05 09:44:15 51°18.69 2°36.746 16.1638 4.375047 34.531084 2.555982
2004-07-05 09:45:15 51°18.854 2°36.497 16.168504 4.375891 34.534675 2.488563
2004-07-05 09:46:15 51°19.016 2°36.246 16.164356 4.376523 34.53769 2.724529
2004-07-05 09:47:15 51°19.173 2°35.986 16.159438 4.375785 34.535675 2.522272
2004-07-05 09:48:15 51°19.33 2°35.725 16.15345 4.375258 34.538741 2.488563
2004-07-05 09:49:15 51°19.482 2°35.456 16.145537 4.375785 34.547264 2.454853
2004-07-05 09:50:15 51°19.635 2°35.187 16.148959 4.376313 34.555789 2.555982
2004-07-05 09:51:15 51°19.788 2°34.914 16.141601 4.376418 34.558654 2.6234
2004-07-05 09:52:13 51°19.937 2°34.648 16.139462 4.37684 34.562382 2.454853
2004-07-05 09:53:15 51°20.094 2°34.364 16.132189 4.377051 34.569404 2.488563
2004-07-05 09:54:15 51°20.246 2°34.092 16.108267 4.376313 34.57384 2.387435
2004-07-05 09:55:15 51°20.395 2°33.819 16.093371 4.37568 34.585023 2.589691
2004-07-05 09:56:15 51°20.544 2°33.544 16.101461 4.374837 34.581433 2.454853
2004-07-05 09:57:15 51°20.693 2°33.266 16.10617 4.376102 34.591984 2.555982
2004-07-05 09:58:15 51°20.841 2°32.99 16.095511 4.377895 34.604616 2.454853
2004-07-05 09:59:12 51°20.985 2°32.733 16.06451 4.379056 34.627163 2.218888
2004-07-05 10:00:17 51°21.173 2°32.511 16.020897 4.377369 34.641992 2.6234
2004-07-05 10:01:15 51°21.365 2°32.427 16.008639 4.372307 34.628231 2.421144
2004-07-05 10:02:22 51°21.59 2°32.361 15.99535 4.371779 34.633928 2.555982
2004-07-05 10:03:22 51°21.793 2°32.289 15.974983 4.36967 34.630786 2.353725
2004-07-05 10:04:21 51°21.992 2°32.218 16.010011 4.369143 34.634543 2.522272
2004-07-05 10:05:21 51°22.196 2°32.146 16.026254 4.372096 34.639327 2.218888
2004-07-05 10:06:25 51°22.413 2°32.062 16.009454 4.374627 34.643612 2.387435
2004-07-05 10:07:25 51°22.544 2°31.936 15.993807 4.374416 34.655361 2.320016
2004-07-05 10:08:25 51°22.537 2°31.808 15.982831 4.374627 34.67281 2.151469
2004-07-05 10:09:25 51°22.512 2°31.752 15.939852 4.372202 34.673374 2.421144
2004-07-05 10:10:25 51°22.476 2°31.694 15.910712 4.373046 34.7134 2.454853
2004-07-05 10:11:25 51°22.404 2°31.653 15.90496 4.370621 34.71139 3.263879
2004-07-05 10:12:25 51°22.348 2°31.68 15.919725 4.371043 34.714489 3.061623
2004-07-05 10:13:25 51°22.306 2°31.749 15.933244 4.371992 34.702076 2.791947
2004-07-05 10:14:25 51°22.224 2°31.763 15.9598 4.371464 34.698042 2.589691
2004-07-05 10:15:25 51°22.154 2°31.705 16.000152 4.3741 34.673977 2.791947
2004-07-05 10:16:25 51°22.118 2°31.65 15.958599 4.375471 34.683543 2.421144
2004-07-05 10:17:25 51°22.091 2°31.603 15.931012 4.371358 34.677586 2.589691
2004-07-05 10:18:25 51°22.071 2°31.567 15.924618 4.369249 34.679018 3.466136
2004-07-05 10:19:25 51°22.05 2°31.527 15.92479 4.3683 34.671236 3.533554
2004-07-05 10:20:25 51°22.026 2°31.484 15.925906 4.368722 34.675635 3.23017
2004-07-05 10:21:25 51°22 2°31.44 15.927236 4.3683 34.672538 3.297589
2004-07-05 10:22:25 51°21.974 2°31.394 15.923889 4.3683 34.672538 3.938067
2004-07-05 10:23:25 51°21.947 2°31.349 15.934102 4.369038 34.678445 4.106614
2004-07-05 10:24:25 51°21.919 2°31.303 15.931098 4.369038 34.673891 3.365007
2004-07-05 10:25:31 51°21.89 2°31.254 15.947188 4.36946 34.676337 3.567264
2004-07-05 10:26:31 51°21.887 2°31.229 15.93968 4.371042 34.674776 3.19646
2004-07-05 10:27:31 51°21.883 2°31.194 15.919897 4.368722 34.67043 2.825657
2004-07-05 10:28:31 51°21.872 2°31.152 15.913158 4.367246 34.672278 3.499845
2004-07-05 10:29:31 51°21.856 2°31.109 15.91436 4.367668 34.676026 3.836939
2004-07-05 10:30:31 51°21.837 2°31.067 15.91788 4.367878 34.67725 3.735811
2004-07-05 10:31:29 51°21.815 2°31.029 15.921313 4.367878 34.675297 3.600973
2004-07-05 10:32:31 51°21.78 2°30.991 15.927451 4.367984 34.674282 3.466136
2004-07-05 10:33:31 51°21.736 2°31.014 15.924146 4.369355 34.680605 3.600973
2004-07-05 10:34:31 51°21.782 2°31.043 15.92715 4.367878 34.671392 3.499845
2004-07-05 10:35:31 51°21.959 2°31.044 15.945429 4.369144 34.672225 2.724529
2004-07-05 10:36:31 51°22.163 2°31.048 15.925734 4.370198 34.67834 2.555982
2004-07-05 10:37:31 51°22.367 2°31.06 15.883707 4.370726 34.699297 2.488563
2004-07-05 10:38:31 51°22.569 2°31.075 15.855832 4.369566 34.726796 2.454853
2004-07-05 10:39:30 51°22.767 2°31.093 15.845263 4.368723 34.740184 2.454853
2004-07-05 10:40:31 51°22.968 2°31.132 15.841911 4.368301 34.744924 2.454853
2004-07-05 10:41:30 51°23.155 2°31.209 15.841868 4.367774 34.739576 2.555982
2004-07-05 10:42:31 51°23.341 2°31.313 15.853168 4.368934 34.745983 1.814375
2004-07-05 10:43:31 51°23.532 2°31.385 15.861115 4.369145 34.738713 2.218888
2004-07-05 10:44:30 51°23.727 2°31.339 15.840493 4.369989 34.745568 2.758238
2004-07-05 10:45:31 51°23.903 2°31.121 15.822358 4.368512 34.748763 2.286306
2004-07-05 10:46:31 51°24.016 2°30.795 15.763449 4.366825 34.767756 2.252597
2004-07-05 10:47:31 51°24.117 2°30.453 15.72795 4.362924 34.770972 2.016631
2004-07-05 10:48:31 51°24.22 2°30.113 15.690322 4.359655 34.777229 2.421144
2004-07-05 10:49:31 51°24.326 2°29.764 15.662799 4.356808 34.782676 2.589691
2004-07-05 10:50:29 51°24.423 2°29.435 15.642892 4.354699 34.782896 2.488563
2004-07-05 10:51:31 51°24.528 2°29.085 15.634144 4.353222 34.784829 2.387435
2004-07-05 10:52:31 51°24.699 2°28.91 15.636687 4.354066 34.788425 2.522272
2004-07-05 10:53:31 51°24.874 2°29.003 15.622808 4.3528 34.783031 2.421144
2004-07-05 10:54:31 51°25.042 2°29.136 15.618023 4.349953 34.773359 2.65711
2004-07-05 10:55:30 51°25.18 2°29.33 15.622377 4.351113 34.77847 2.724529
2004-07-05 10:56:31 51°25.32 2°29.534 15.620135 4.349848 34.770441 2.488563
2004-07-05 10:57:31 51°25.459 2°29.734 15.617764 4.350269 34.775531 2.488563
2004-07-05 10:58:31 51°25.6 2°29.934 15.610478 4.35027 34.777507 2.522272
2004-07-05 10:59:31 51°25.74 2°30.139 15.603752 4.349637 34.77843 2.825657
2004-07-05 11:00:31 51°25.833 2°30.394 15.639057 4.350164 34.775905 2.724529
2004-07-05 11:01:31 51°25.863 2°30.698 15.629489 4.35259 34.783119 2.6234
2004-07-05 11:02:31 51°25.8 2°31.002 15.630868 4.353117 34.788494 2.555982
2004-07-05 11:03:31 51°25.659 2°31.275 15.601294 4.35375 34.801399 2.387435
2004-07-05 11:04:31 51°25.53 2°31.559 15.629187 4.35259 34.804198 3.533554
2004-07-05 11:05:29 51°25.411 2°31.839 15.681881 4.355121 34.798514 2.185178
2004-07-05 11:06:31 51°25.294 2°32.149 15.718567 4.357651 34.782326 2.387435
2004-07-05 11:07:31 51°25.183 2°32.451 15.746928 4.359127 34.764645 2.6234
2004-07-05 11:08:31 51°25.061 2°32.74 15.768009 4.36092 34.757031 2.555982
2004-07-05 11:09:31 51°24.967 2°33.04 15.780525 4.361974 34.749399 2.252597
2004-07-05 11:10:31 51°24.871 2°33.34 15.789728 4.362923 34.748037 2.353725
2004-07-05 11:11:31 51°24.773 2°33.643 15.808689 4.363556 34.74124 2.353725
2004-07-05 11:12:31 51°24.674 2°33.948 15.835294 4.364821 34.736161 1.915503
2004-07-05 11:13:31 51°24.586 2°34.257 15.860213 4.366825 34.730473 2.454853
2004-07-05 11:14:31 51°24.504 2°34.571 15.875032 4.367563 34.718107 2.286306
2004-07-05 11:15:31 51°24.44 2°34.892 15.879412 4.368934 34.7166 2.151469
2004-07-05 11:16:31 51°24.381 2°35.212 15.885854 4.368512 34.710239 2.050341
2004-07-05 11:17:31 51°24.3 2°35.531 15.876664 4.368406 34.711258 2.320016
2004-07-05 11:18:31 51°24.197 2°35.836 15.881087 4.367457 34.705425 1.982922
2004-07-05 11:19:31 51°24.091 2°36.095 15.899765 4.369144 34.709998 2.016631
2004-07-05 11:20:31 51°23.98 2°36.178 15.922172 4.369144 34.694357 2.016631
2004-07-05 11:21:31 51°23.885 2°36.092 15.950878 4.370093 34.681307 2.08405
2004-07-05 11:22:31 51°23.852 2°35.96 15.965333 4.373151 34.680499 2.286306
2004-07-05 11:23:29 51°23.87 2°35.84 15.95757 4.37294 34.676027 2.016631
2004-07-05 11:24:31 51°23.93 2°35.709 15.949076 4.371991 34.681903 2.117759
2004-07-05 11:25:31 51°23.941 2°35.589 15.944357 4.372624 34.694028 2.08405
2004-07-05 11:26:31 51°23.919 2°35.537 15.941225 4.371569 34.684011 2.320016
2004-07-05 11:27:31 51°23.891 2°35.497 15.935818 4.371359 34.690596 2.926785
2004-07-05 11:28:29 51°23.864 2°35.463 15.932257 4.371253 34.691612 2.589691
2004-07-05 11:29:31 51°23.833 2°35.43 15.928995 4.371464 34.694136 2.690819
2004-07-05 11:30:31 51°23.801 2°35.402 15.931956 4.370831 34.688515 2.65711
2004-07-05 11:31:31 51°23.769 2°35.378 15.927965 4.370937 34.689452 2.6234
2004-07-05 11:32:32 51°23.735 2°35.355 15.929167 4.370831 34.694374 2.724529
2004-07-05 11:33:31 51°23.701 2°35.331 15.934917 4.370726 34.688229 2.555982
2004-07-05 11:34:31 51°23.667 2°35.307 15.940066 4.371675 34.692105 2.791947
2004-07-05 11:35:31 51°23.633 2°35.282 15.938479 4.370937 34.686849 2.690819
2004-07-05 11:36:31 51°23.598 2°35.255 15.9447 4.371464 34.685677 2.6234
2004-07-05 11:37:29 51°23.566 2°35.23 15.952594 4.372097 34.684141 2.522272
2004-07-05 11:38:31 51°23.53 2°35.201 15.953924 4.372835 34.686793 2.421144
2004-07-05 11:39:31 51°23.495 2°35.174 15.951264 4.372519 34.685935 2.387435
2004-07-05 11:40:31 51°23.427 2°35.184 15.952808 4.372413 34.684348 2.65711
2004-07-05 11:41:28 51°23.249 2°35.306 15.96795 4.372835 34.681591 2.690819
2004-07-05 11:42:30 51°23.014 2°35.433 15.962288 4.3741 34.682424 2.454853
2004-07-05 11:43:31 51°22.768 2°35.481 15.949033 4.37505 34.698001 2.185178
2004-07-05 11:44:31 51°22.526 2°35.532 15.942212 4.375366 34.71122 2.151469
2004-07-05 11:45:31 51°22.285 2°35.589 15.944614 4.375577 34.720254 2.185178
2004-07-05 11:46:31 51°22.046 2°35.653 15.940452 4.375999 34.724653 2.320016
2004-07-05 11:47:31 51°21.809 2°35.714 15.957613 4.375155 34.713903 2.387435
2004-07-05 11:48:31 51°21.571 2°35.77 15.975798 4.376526 34.711759 2.320016
2004-07-05 11:49:31 51°21.333 2°35.829 15.985275 4.378424 34.711696 2.218888
2004-07-05 11:50:31 51°21.096 2°35.886 16.02484 4.378846 34.709588 2.286306
2004-07-05 11:51:31 51°20.879 2°36.006 16.046991 4.381377 34.693711 2.252597
2004-07-05 11:52:31 51°20.711 2°36.245 16.095126 4.381904 34.671795 2.218888
2004-07-05 11:53:31 51°20.549 2°36.503 16.133815 4.383696 34.650119 2.252597
2004-07-05 11:54:35 51°20.458 2°36.844 16.159737 4.385594 34.638469 2.117759
2004-07-05 11:55:35 51°20.446 2°37.184 16.17727 4.387176 34.631792 2.151469
2004-07-05 11:56:36 51°20.434 2°37.533 16.176885 4.388019 34.627633 2.320016
2004-07-05 11:57:35 51°20.418 2°37.871 16.1768 4.387914 34.626056 2.454853
2004-07-05 11:58:35 51°20.399 2°38.215 16.17881 4.387387 34.622688 2.421144
2004-07-05 11:59:35 51°20.382 2°38.559 16.197449 4.387386 34.616885 2.353725
2004-07-05 12:00:35 51°20.364 2°38.904 16.197791 4.388757 34.616745 2.151469
2004-07-05 12:01:35 51°20.354 2°39.25 16.212878 4.389074 34.617605 2.08405
2004-07-05 12:02:35 51°20.36 2°39.596 16.226766 4.390866 34.614106 1.848084
2004-07-05 12:03:35 51°20.368 2°39.941 16.227193 4.389917 34.610237 1.949212
2004-07-05 12:04:35 51°20.381 2°40.288 16.225527 4.39055 34.609382 1.881794
2004-07-05 12:05:35 51°20.388 2°40.635 16.21869 4.389706 34.6058 2.151469
2004-07-05 12:06:35 51°20.394 2°40.985 16.229543 4.390128 34.60566 2.218888
2004-07-05 12:07:35 51°20.403 2°41.333 16.235866 4.391183 34.607241 2.320016
2004-07-05 12:08:35 51°20.412 2°41.68 16.243726 4.391393 34.600094 2.353725
2004-07-05 12:09:35 51°20.421 2°42.03 16.242957 4.390866 34.598016 2.353725
2004-07-05 12:10:34 51°20.429 2°42.373 16.250689 4.391288 34.599164 2.421144
2004-07-05 12:11:35 51°20.435 2°42.729 16.261323 4.39287 34.604754 2.286306
2004-07-05 12:12:35 51°20.439 2°43.079 16.279385 4.393608 34.598403 2.185178
2004-07-05 12:13:35 51°20.408 2°43.426 16.29932 4.394768 34.597061 2.117759
2004-07-05 12:14:35 51°20.37 2°43.777 16.331921 4.397404 34.598453 2.117759
2004-07-05 12:15:35 51°20.302 2°44.113 16.345657 4.39983 34.58773 2.016631
2004-07-05 12:16:35 51°20.221 2°44.448 16.361394 4.401306 34.595593 2.016631
2004-07-05 12:17:35 51°20.142 2°44.784 16.383479 4.403205 34.60332 1.949212
2004-07-05 12:18:35 51°20.059 2°45.119 16.388168 4.405736 34.601229 1.982922
2004-07-05 12:19:35 51°19.976 2°45.453 16.416594 4.405419 34.591404 2.016631
2004-07-05 12:20:35 51°19.896 2°45.789 16.451184 4.408055 34.585778 1.881794
2004-07-05 12:21:35 51°19.814 2°46.124 16.466002 4.409743 34.575669 1.848084
2004-07-05 12:22:35 51°19.73 2°46.461 16.457145 4.410481 34.580872 1.814375
2004-07-05 12:23:35 51°19.648 2°46.797 16.461319 4.409637 34.57666 1.746956
2004-07-05 12:24:35 51°19.553 2°47.126 16.484138 4.41027 34.577104 1.612118
2004-07-05 12:25:35 51°19.434 2°47.438 16.521756 4.41259 34.571927 1.612118
2004-07-05 12:26:35 51°19.316 2°47.749 16.562968 4.415332 34.560901 1.612118
2004-07-05 12:27:35 51°19.201 2°48.062 16.586137 4.418284 34.559388 1.713247
2004-07-05 12:28:34 51°19.088 2°48.373 16.593192 4.420393 34.557494 1.915503
2004-07-05 12:29:35 51°18.971 2°48.697 16.61618 4.419761 34.546234 2.050341
2004-07-05 12:30:35 51°18.861 2°49.019 16.643959 4.420815 34.53132 2.08405
2004-07-05 12:31:35 51°18.739 2°49.336 16.664977 4.422924 34.525012 1.982922
2004-07-05 12:32:35 51°18.612 2°49.649 16.706655 4.424506 34.516013 1.848084
2004-07-05 12:33:35 51°18.486 2°49.962 16.729944 4.427458 34.512034 2.016631
2004-07-05 12:34:35 51°18.358 2°50.274 16.73338 4.428091 34.506168 1.848084
2004-07-05 12:35:35 51°18.231 2°50.584 16.751191 4.426931 34.490357 1.814375
2004-07-05 12:36:35 51°18.103 2°50.892 16.776076 4.426403 34.464285 1.881794
2004-07-05 12:37:35 51°17.961 2°51.185 16.805273 4.427141 34.450533 1.848084
2004-07-05 12:38:34 51°17.813 2°51.465 16.823828 4.42809 34.434229 1.915503
2004-07-05 12:39:35 51°17.653 2°51.745 16.839455 4.428406 34.423766 1.915503
2004-07-05 12:40:35 51°17.475 2°51.989 16.858255 4.429144 34.417611 2.117759
2004-07-05 12:41:35 51°17.266 2°52.145 16.866975 4.431992 34.423521 2.117759
2004-07-05 12:42:35 51°17.051 2°52.281 16.870404 4.431464 34.415794 2.08405
2004-07-05 12:43:35 51°16.836 2°52.423 16.876668 4.431886 34.415064 1.982922
2004-07-05 12:44:35 51°16.622 2°52.569 16.879292 4.431781 34.413519 2.050341
2004-07-05 12:45:35 51°16.41 2°52.722 16.891141 4.432202 34.412162 1.982922
2004-07-05 12:46:35 51°16.198 2°52.877 16.910307 4.431253 34.389479 1.881794
2004-07-05 12:47:35 51°15.99 2°53.041 16.946213 4.433257 34.389955 1.780665
2004-07-05 12:48:35 51°15.788 2°53.215 16.990467 4.437581 34.391781 1.713247
2004-07-05 12:49:35 51°15.584 2°53.392 17.028907 4.443487 34.408582 1.645828
2004-07-05 12:50:35 51°15.384 2°53.578 17.083489 4.448971 34.41671 1.5447
2004-07-05 12:51:35 51°15.199 2°53.754 17.13145 4.450869 34.39256 1.645828
2004-07-05 12:52:35 51°15.092 2°53.828 17.182664 4.456775 34.399377 2.353725
2004-07-05 12:53:35 51°15.039 2°53.899 17.207267 4.458567 34.380014 2.488563
2004-07-05 12:54:35 51°14.978 2°53.963 17.216281 4.460887 34.382016 2.454853
2004-07-05 12:55:35 51°14.844 2°54.152 17.22803 4.462153 34.386724 2.488563
2004-07-05 12:56:40 51°14.692 2°54.43 17.225419 4.459305 34.356565 1.915503
2004-07-05 12:57:39 51°14.562 2°54.703 17.223777 4.454453 34.340776 2.185178
2004-07-05 12:58:40 51°14.422 2°54.972 17.298483 4.458039 34.322085 2.08405
2004-07-05 12:59:40 51°14.296 2°55.2 17.304035 4.453819 34.257895 1.848084
2004-07-05 13:00:40 51°14.192 2°55.352 17.638959 4.443587 34.086848 2.421144